Spencer, WI

10:45 AM CDT on August 20, 2014 (GMT -0500)
Marshfield Municipal | Change Station
CLOSE
Current Station
Airport
Location: Marshfield,
Elevation: 1276 ft
Nearby Weather Stations

Elev 1276 ft 44.64 °N, 90.19 °W | Updated 51 minutes ago

Overcast
Overcast
61 °F
Feels Like 61 °F
N
5
Wind Variable Wind from WNW

Today
High -- | Low -- °F
--% Chance of Precip.
Yesterday
High -- | Low -- °F
Precip. -- in
6:09 AM 7:58 PM
Waning Crescent, 21% visible
Pressure 29.90 in
Visibility 4.0 miles
Clouds Overcast 300 ft
Dew Point 59 °F
Humidity 93%
Rainfall 0.00 in
Snow Depth Not available.
UV 2 out of 12
Pollen 9.30 out of 12
Air Quality Not available.
Flu Activity Not available.
METAR KMFI 201454Z AUTO 29004KT 4SM BR OVC003 16/15 A2990 RMK AO2 SLP124 T01610150 51020

More Conditions Fewer Conditions

Pressure 29.90 in
Visibility 4.0 miles
Clouds Overcast 300 ft
Dew Point 59 °F
Humidity 93%
Rainfall 0.00 in
Snow Depth Not available.
UV 2 out of 12
Pollen 9.30 out of 12
Air Quality Not available.
Flu Activity Not available.
METAR KMFI 201454Z AUTO 29004KT 4SM BR OVC003 16/15 A2990 RMK AO2 SLP124 T01610150 51020

More Conditions Fewer Conditions

10-Day Weather Forecast

Almanac

Astronomy

Aug. 20, 2014 Rise Set
Actual Time 6:09 AM CDT 7:58 PM CDT
Civil Twilight 5:38 AM CDT 8:30 PM CDT
Nautical Twilight 4:59 AM CDT 9:08 PM CDT
Astronomical Twilight 4:18 AM CDT 9:49 PM CDT
Moon 1:44 AM CDT 4:48 PM CDT
Length of Visible Light 14h 51m
Length of Day
13h 49m
Tomorrow will be 2m 52s shorter.
Waning Crescent, 21% of the Moon is Illuminated
Today
Waning Crescent
Aug 25
New
Sep 2
First Quarter
Sep 8
Full
Sep 15
Last Quarter

Today's Extremes

State Highs State Lows

Community

WunderPhotos

Upload Photos

1,745,668 photos uploaded!

WunderBlogs® & News

Nearby

Snow Depth

Station Depth Elevation
No new snow has been reported.

Earthquake Activity

City Distance Mag. Time & Date
No recent earthquake activity has been reported nearby.
Minimum magnitude displayed is 2.5.

Coastal Water Temperatures

Place Temperature
No Stations Reporting

Nearby Weather Stations